Ballina, New South Wales

8:49 PM AEST on September 25, 2016 (GMT +1000)
East Ballina AU | | Change Station

Elev 102 ft 28.87 °S, 153.59 °E | Updated 16 minutes ago

Clear
Clear
68.7 °F
Feels Like 68.7 °F
N
1.0
Wind Variable Wind from NNW
Gusts 6.0 mph

Today
High -- | Low -- °F
--% Chance of Precip.
Yesterday
High -- | Low -- °F
Precip. -- in
Pressure 29.80 in
Visibility 6.2 miles
Clouds
Dew Point 50 °F
Humidity 52%
Rainfall in
Snow Depth Not available.
5:31 AM 5:43 PM
Waning Crescent, 29% visible
METAR YBCG 251030Z AUTO 24006KT 9999 // NCD 18/11 Q1009
Pressure 29.80 in
Visibility 6.2 miles
Clouds
Dew Point 50 °F
Humidity 52%
Rainfall in
Snow Depth Not available.
5:31 AM 5:43 PM
Waning Crescent, 29% visible
METAR YBCG 251030Z AUTO 24006KT 9999 // NCD 18/11 Q1009

10-Day Weather Forecast

Almanac

Astronomy

Sep. 25, 2016 Rise Set
Actual Time
Civil Twilight
Nautical Twilight
Astronomical Twilight
Moon
Length of Visible Light
Length of Day
Tomorrow will be .
, % of the Moon is Illuminated

Today's Extremes

Country Highs Country Lows

Community

WunderPhotos

Upload Photos

1,941,570 photos uploaded!

WunderBlog® & News

Nearby

Air Quality

  Air Quality AQ Index Pollutant
Not available.

Snow Depth

Station Depth Elevation

Earthquake Activity

City Distance Mag. Time & Date
Minimum magnitude displayed is 2.5.

Coastal Water Temperatures

Place Temperature

Stations

Nearby Weather Stations

Station Location Temp. Windchill Dew Point Humidity Wind Precip. Elev Updated Type